sensor_id;sensor_type;location;lat;lon;timestamp;pressure;altitude;pressure_sealevel;temperature;humidity
60920;BME280;59039;52.108;19.942;2023-06-22T00:01:31;100669.30;;;21.15;84.92
60920;BME280;59039;52.108;19.942;2023-06-22T00:03:56;100660.13;;;21.13;85.02
60920;BME280;59039;52.108;19.942;2023-06-22T00:06:22;100656.27;;;21.12;84.70
60920;BME280;59039;52.108;19.942;2023-06-22T00:08:47;100656.77;;;21.11;84.82
60920;BME280;59039;52.108;19.942;2023-06-22T00:11:13;100661.91;;;21.10;84.85
60920;BME280;59039;52.108;19.942;2023-06-22T00:13:38;100664.90;;;21.08;84.97
60920;BME280;59039;52.108;19.942;2023-06-22T00:16:04;100662.35;;;21.06;84.98
60920;BME280;59039;52.108;19.942;2023-06-22T00:18:29;100666.45;;;21.05;85.12
60920;BME280;59039;52.108;19.942;2023-06-22T00:20:55;100669.60;;;21.03;85.12
60920;BME280;59039;52.108;19.942;2023-06-22T00:23:23;100666.80;;;21.02;84.92
60920;BME280;59039;52.108;19.942;2023-06-22T00:26:10;100665.83;;;21.02;85.34
60920;BME280;59039;52.108;19.942;2023-06-22T00:28:35;100667.69;;;21.01;85.51
60920;BME280;59039;52.108;19.942;2023-06-22T00:31:00;100670.71;;;21.01;85.20
60920;BME280;59039;52.108;19.942;2023-06-22T00:33:26;100672.92;;;21.01;85.19
60920;BME280;59039;52.108;19.942;2023-06-22T00:35:52;100675.52;;;21.01;85.29
60920;BME280;59039;52.108;19.942;2023-06-22T00:38:20;100664.76;;;21.00;85.35
60920;BME280;59039;52.108;19.942;2023-06-22T00:40:46;100663.91;;;20.99;85.12
60920;BME280;59039;52.108;19.942;2023-06-22T00:43:11;100675.56;;;20.99;85.16
60920;BME280;59039;52.108;19.942;2023-06-22T00:45:45;100676.84;;;20.98;84.99
60920;BME280;59039;52.108;19.942;2023-06-22T00:48:12;100681.26;;;20.97;84.92
60920;BME280;59039;52.108;19.942;2023-06-22T00:50:37;100680.20;;;20.95;85.22
60920;BME280;59039;52.108;19.942;2023-06-22T00:53:08;100681.23;;;20.94;84.91
60920;BME280;59039;52.108;19.942;2023-06-22T00:55:38;100685.19;;;20.94;84.92
60920;BME280;59039;52.108;19.942;2023-06-22T00:58:09;100693.13;;;20.94;84.88
60920;BME280;59039;52.108;19.942;2023-06-22T01:00:35;100697.33;;;20.93;84.91
60920;BME280;59039;52.108;19.942;2023-06-22T01:03:02;100700.16;;;20.91;84.98
60920;BME280;59039;52.108;19.942;2023-06-22T01:05:27;100700.91;;;20.89;84.74
60920;BME280;59039;52.108;19.942;2023-06-22T01:10:43;100696.48;;;20.87;85.07
60920;BME280;59039;52.108;19.942;2023-06-22T01:18:41;100697.66;;;20.82;85.36
60920;BME280;59039;52.108;19.942;2023-06-22T01:21:12;100700.68;;;20.82;85.06
60920;BME280;59039;52.108;19.942;2023-06-22T01:23:54;100707.48;;;20.80;85.23
60920;BME280;59039;52.108;19.942;2023-06-22T01:29:24;100709.61;;;20.77;85.39
60920;BME280;59039;52.108;19.942;2023-06-22T01:31:57;100706.94;;;20.77;85.08
60920;BME280;59039;52.108;19.942;2023-06-22T01:34:24;100704.30;;;20.76;85.36
60920;BME280;59039;52.108;19.942;2023-06-22T01:36:51;100703.34;;;20.75;85.22
60920;BME280;59039;52.108;19.942;2023-06-22T01:39:18;100699.04;;;20.74;85.14
60920;BME280;59039;52.108;19.942;2023-06-22T01:41:46;100700.61;;;20.73;84.98
60920;BME280;59039;52.108;19.942;2023-06-22T01:44:12;100703.70;;;20.73;85.21
60920;BME280;59039;52.108;19.942;2023-06-22T01:46:38;100712.94;;;20.72;84.94
60920;BME280;59039;52.108;19.942;2023-06-22T01:49:05;100715.19;;;20.70;84.98
60920;BME280;59039;52.108;19.942;2023-06-22T01:51:31;100716.84;;;20.69;84.87
60920;BME280;59039;52.108;19.942;2023-06-22T01:53:56;100719.48;;;20.67;84.87
60920;BME280;59039;52.108;19.942;2023-06-22T01:56:22;100722.85;;;20.66;84.75
60920;BME280;59039;52.108;19.942;2023-06-22T01:59:11;100723.02;;;20.64;85.12
60920;BME280;59039;52.108;19.942;2023-06-22T02:01:53;100720.34;;;20.62;85.10
60920;BME280;59039;52.108;19.942;2023-06-22T02:04:29;100725.43;;;20.61;85.35
60920;BME280;59039;52.108;19.942;2023-06-22T02:07:02;100732.84;;;20.60;85.24
60920;BME280;59039;52.108;19.942;2023-06-22T02:09:43;100738.57;;;20.58;85.28
60920;BME280;59039;52.108;19.942;2023-06-22T02:12:11;100742.64;;;20.57;85.23
60920;BME280;59039;52.108;19.942;2023-06-22T02:14:50;100738.27;;;20.55;85.20
60920;BME280;59039;52.108;19.942;2023-06-22T02:17:24;100739.47;;;20.53;85.33
60920;BME280;59039;52.108;19.942;2023-06-22T02:20:31;100740.70;;;20.51;85.26
60920;BME280;59039;52.108;19.942;2023-06-22T02:22:59;100735.42;;;20.49;84.97
60920;BME280;59039;52.108;19.942;2023-06-22T02:25:27;100740.70;;;20.48;85.05
60920;BME280;59039;52.108;19.942;2023-06-22T02:27:52;100738.96;;;20.46;85.03
60920;BME280;59039;52.108;19.942;2023-06-22T02:30:25;100746.70;;;20.44;84.99
60920;BME280;59039;52.108;19.942;2023-06-22T02:32:50;100743.80;;;20.41;84.92
60920;BME280;59039;52.108;19.942;2023-06-22T02:35:16;100750.22;;;20.40;84.91
60920;BME280;59039;52.108;19.942;2023-06-22T02:37:41;100754.80;;;20.39;84.83
60920;BME280;59039;52.108;19.942;2023-06-22T02:40:08;100760.88;;;20.38;84.84
60920;BME280;59039;52.108;19.942;2023-06-22T02:42:33;100764.22;;;20.36;84.80
60920;BME280;59039;52.108;19.942;2023-06-22T02:44:58;100762.83;;;20.36;84.80
60920;BME280;59039;52.108;19.942;2023-06-22T02:47:24;100765.42;;;20.34;84.79
60920;BME280;59039;52.108;19.942;2023-06-22T02:49:49;100767.61;;;20.31;84.77
60920;BME280;59039;52.108;19.942;2023-06-22T02:52:14;100765.19;;;20.29;84.80
60920;BME280;59039;52.108;19.942;2023-06-22T02:54:40;100768.64;;;20.27;84.67
60920;BME280;59039;52.108;19.942;2023-06-22T02:57:05;100775.48;;;20.25;84.55
60920;BME280;59039;52.108;19.942;2023-06-22T02:59:30;100783.45;;;20.23;84.65
60920;BME280;59039;52.108;19.942;2023-06-22T03:01:56;100788.92;;;20.20;84.67
60920;BME280;59039;52.108;19.942;2023-06-22T03:04:21;100791.03;;;20.18;84.79
60920;BME280;59039;52.108;19.942;2023-06-22T03:06:47;100794.60;;;20.16;84.69
60920;BME280;59039;52.108;19.942;2023-06-22T03:09:12;100803.69;;;20.14;84.70
60920;BME280;59039;52.108;19.942;2023-06-22T03:11:37;100809.84;;;20.13;84.48
60920;BME280;59039;52.108;19.942;2023-06-22T03:14:03;100811.23;;;20.13;84.65
60920;BME280;59039;52.108;19.942;2023-06-22T03:16:28;100808.00;;;20.12;84.46
60920;BME280;59039;52.108;19.942;2023-06-22T03:18:53;100807.19;;;20.10;84.42
60920;BME280;59039;52.108;19.942;2023-06-22T03:21:21;100804.80;;;20.10;84.50
60920;BME280;59039;52.108;19.942;2023-06-22T03:23:47;100801.80;;;20.09;84.51
60920;BME280;59039;52.108;19.942;2023-06-22T03:26:12;100801.71;;;20.09;84.39
60920;BME280;59039;52.108;19.942;2023-06-22T03:28:37;100804.43;;;20.10;84.50
60920;BME280;59039;52.108;19.942;2023-06-22T03:31:03;100808.85;;;20.10;84.57
60920;BME280;59039;52.108;19.942;2023-06-22T03:33:29;100812.88;;;20.11;84.44
60920;BME280;59039;52.108;19.942;2023-06-22T03:35:54;100823.25;;;20.14;84.53
60920;BME280;59039;52.108;19.942;2023-06-22T03:38:20;100834.08;;;20.16;84.52
60920;BME280;59039;52.108;19.942;2023-06-22T03:40:45;100837.11;;;20.18;84.34
60920;BME280;59039;52.108;19.942;2023-06-22T03:43:11;100839.62;;;20.22;84.37
60920;BME280;59039;52.108;19.942;2023-06-22T03:45:36;100840.95;;;20.24;84.45
60920;BME280;59039;52.108;19.942;2023-06-22T03:48:01;100843.92;;;20.28;84.45
60920;BME280;59039;52.108;19.942;2023-06-22T03:50:27;100842.31;;;20.30;84.39
60920;BME280;59039;52.108;19.942;2023-06-22T03:52:52;100841.73;;;20.35;84.63
60920;BME280;59039;52.108;19.942;2023-06-22T03:55:19;100846.63;;;20.39;84.54
60920;BME280;59039;52.108;19.942;2023-06-22T03:57:45;100847.48;;;20.44;84.47
60920;BME280;59039;52.108;19.942;2023-06-22T04:00:11;100845.72;;;20.49;84.50
60920;BME280;59039;52.108;19.942;2023-06-22T04:02:36;100843.98;;;20.55;84.59
60920;BME280;59039;52.108;19.942;2023-06-22T04:05:02;100849.20;;;20.61;84.52
60920;BME280;59039;52.108;19.942;2023-06-22T04:07:27;100842.16;;;20.67;84.33
60920;BME280;59039;52.108;19.942;2023-06-22T04:09:52;100840.67;;;20.74;84.41
60920;BME280;59039;52.108;19.942;2023-06-22T04:12:18;100839.76;;;20.80;84.30
60920;BME280;59039;52.108;19.942;2023-06-22T04:14:43;100838.13;;;20.87;83.96
60920;BME280;59039;52.108;19.942;2023-06-22T04:17:08;100836.17;;;20.93;83.46
60920;BME280;59039;52.108;19.942;2023-06-22T04:19:36;100836.38;;;20.98;83.18
60920;BME280;59039;52.108;19.942;2023-06-22T04:22:05;100836.37;;;21.03;83.08
60920;BME280;59039;52.108;19.942;2023-06-22T04:24:31;100833.48;;;21.09;83.44
60920;BME280;59039;52.108;19.942;2023-06-22T04:27:04;100836.95;;;21.16;82.96
60920;BME280;59039;52.108;19.942;2023-06-22T04:29:30;100836.91;;;21.23;82.35
60920;BME280;59039;52.108;19.942;2023-06-22T04:31:58;100839.20;;;21.29;82.01
60920;BME280;59039;52.108;19.942;2023-06-22T04:34:24;100840.30;;;21.35;81.98
60920;BME280;59039;52.108;19.942;2023-06-22T04:36:50;100840.04;;;21.40;82.32
60920;BME280;59039;52.108;19.942;2023-06-22T04:39:15;100846.71;;;21.49;82.02
60920;BME280;59039;52.108;19.942;2023-06-22T04:41:41;100844.95;;;21.56;81.25
60920;BME280;59039;52.108;19.942;2023-06-22T04:44:16;100847.44;;;21.63;81.35
60920;BME280;59039;52.108;19.942;2023-06-22T04:46:44;100849.81;;;21.69;80.89
60920;BME280;59039;52.108;19.942;2023-06-22T04:49:19;100854.33;;;21.76;80.85
60920;BME280;59039;52.108;19.942;2023-06-22T04:51:44;100855.98;;;21.82;79.18
60920;BME280;59039;52.108;19.942;2023-06-22T04:54:10;100858.52;;;21.85;78.93
60920;BME280;59039;52.108;19.942;2023-06-22T04:56:36;100863.58;;;21.89;78.81
60920;BME280;59039;52.108;19.942;2023-06-22T04:59:01;100861.77;;;21.93;79.10
60920;BME280;59039;52.108;19.942;2023-06-22T05:01:27;100861.79;;;21.99;78.75
60920;BME280;59039;52.108;19.942;2023-06-22T05:03:53;100862.40;;;22.05;78.74
60920;BME280;59039;52.108;19.942;2023-06-22T05:06:18;100865.85;;;22.12;78.75
60920;BME280;59039;52.108;19.942;2023-06-22T05:08:47;100875.97;;;22.20;78.60
60920;BME280;59039;52.108;19.942;2023-06-22T05:11:15;100877.48;;;22.27;77.98
60920;BME280;59039;52.108;19.942;2023-06-22T05:13:40;100875.79;;;22.35;77.66
60920;BME280;59039;52.108;19.942;2023-06-22T05:16:11;100874.35;;;22.41;77.18
60920;BME280;59039;52.108;19.942;2023-06-22T05:18:45;100875.57;;;22.47;77.03
60920;BME280;59039;52.108;19.942;2023-06-22T05:21:11;100879.89;;;22.55;76.33
60920;BME280;59039;52.108;19.942;2023-06-22T05:23:36;100878.13;;;22.62;76.90
60920;BME280;59039;52.108;19.942;2023-06-22T05:26:01;100871.39;;;22.70;76.84
60920;BME280;59039;52.108;19.942;2023-06-22T05:28:27;100867.45;;;22.78;76.09
60920;BME280;59039;52.108;19.942;2023-06-22T05:30:52;100873.73;;;22.87;76.03
60920;BME280;59039;52.108;19.942;2023-06-22T05:33:18;100878.88;;;22.94;75.77
60920;BME280;59039;52.108;19.942;2023-06-22T05:35:43;100880.30;;;23.01;75.25
60920;BME280;59039;52.108;19.942;2023-06-22T05:38:09;100881.02;;;23.08;75.01
60920;BME280;59039;52.108;19.942;2023-06-22T05:40:34;100883.00;;;23.16;74.66
60920;BME280;59039;52.108;19.942;2023-06-22T05:43:00;100887.45;;;23.23;74.34
60920;BME280;59039;52.108;19.942;2023-06-22T05:45:25;100890.05;;;23.29;72.55
60920;BME280;59039;52.108;19.942;2023-06-22T05:48:00;100892.74;;;23.36;72.78
60920;BME280;59039;52.108;19.942;2023-06-22T05:50:25;100888.46;;;23.41;72.13
60920;BME280;59039;52.108;19.942;2023-06-22T05:52:51;100887.87;;;23.46;71.86
60920;BME280;59039;52.108;19.942;2023-06-22T05:55:16;100887.80;;;23.53;72.05
60920;BME280;59039;52.108;19.942;2023-06-22T05:57:50;100886.06;;;23.61;71.71
60920;BME280;59039;52.108;19.942;2023-06-22T06:00:16;100882.42;;;23.69;71.87
60920;BME280;59039;52.108;19.942;2023-06-22T06:02:51;100881.11;;;23.78;70.60
60920;BME280;59039;52.108;19.942;2023-06-22T06:05:16;100886.92;;;23.89;70.21
60920;BME280;59039;52.108;19.942;2023-06-22T06:07:42;100888.09;;;23.98;69.93
60920;BME280;59039;52.108;19.942;2023-06-22T06:10:09;100892.39;;;24.08;69.38
60920;BME280;59039;52.108;19.942;2023-06-22T06:12:34;100895.71;;;24.17;68.74
60920;BME280;59039;52.108;19.942;2023-06-22T06:15:00;100898.63;;;24.27;68.43
60920;BME280;59039;52.108;19.942;2023-06-22T06:17:35;100897.02;;;24.38;68.33
60920;BME280;59039;52.108;19.942;2023-06-22T06:20:03;100898.26;;;24.50;67.96
60920;BME280;59039;52.108;19.942;2023-06-22T06:22:29;100895.02;;;24.61;67.51
60920;BME280;59039;52.108;19.942;2023-06-22T06:24:57;100892.23;;;24.73;66.01
60920;BME280;59039;52.108;19.942;2023-06-22T06:27:22;100892.02;;;24.87;66.09
60920;BME280;59039;52.108;19.942;2023-06-22T06:29:48;100889.80;;;25.02;65.97
60920;BME280;59039;52.108;19.942;2023-06-22T06:32:13;100894.33;;;25.20;64.83
60920;BME280;59039;52.108;19.942;2023-06-22T06:34:46;100893.64;;;25.34;65.19
60920;BME280;59039;52.108;19.942;2023-06-22T06:37:11;100890.42;;;25.52;63.77
60920;BME280;59039;52.108;19.942;2023-06-22T06:39:36;100892.19;;;25.67;63.92
60920;BME280;59039;52.108;19.942;2023-06-22T06:42:02;100887.96;;;25.84;63.21
60920;BME280;59039;52.108;19.942;2023-06-22T06:44:27;100892.91;;;25.99;62.43
60920;BME280;59039;52.108;19.942;2023-06-22T06:46:53;100894.79;;;26.14;61.90
60920;BME280;59039;52.108;19.942;2023-06-22T06:49:18;100890.18;;;26.29;61.30
60920;BME280;59039;52.108;19.942;2023-06-22T06:51:46;100889.52;;;26.40;61.13
60920;BME280;59039;52.108;19.942;2023-06-22T06:54:12;100888.38;;;26.50;60.21
60920;BME280;59039;52.108;19.942;2023-06-22T06:56:37;100892.52;;;26.61;59.56
60920;BME280;59039;52.108;19.942;2023-06-22T06:59:02;100888.94;;;26.70;57.41
60920;BME280;59039;52.108;19.942;2023-06-22T07:01:28;100891.90;;;26.76;57.47
60920;BME280;59039;52.108;19.942;2023-06-22T07:03:53;100889.21;;;26.82;54.99
60920;BME280;59039;52.108;19.942;2023-06-22T07:06:19;100887.89;;;26.86;54.73
60920;BME280;59039;52.108;19.942;2023-06-22T07:08:46;100886.48;;;26.92;53.48
60920;BME280;59039;52.108;19.942;2023-06-22T07:11:12;100889.98;;;26.97;53.66
60920;BME280;59039;52.108;19.942;2023-06-22T07:16:27;100891.00;;;27.17;54.05
60920;BME280;59039;52.108;19.942;2023-06-22T07:18:52;100892.31;;;27.32;54.15
60920;BME280;59039;52.108;19.942;2023-06-22T07:21:18;100894.11;;;27.46;53.72
60920;BME280;59039;52.108;19.942;2023-06-22T07:23:43;100893.07;;;27.59;52.39
60920;BME280;59039;52.108;19.942;2023-06-22T07:26:08;100897.55;;;27.72;52.41
60920;BME280;59039;52.108;19.942;2023-06-22T07:28:34;100893.30;;;27.85;51.52
60920;BME280;59039;52.108;19.942;2023-06-22T07:31:08;100889.85;;;27.98;51.83
60920;BME280;59039;52.108;19.942;2023-06-22T07:33:34;100897.86;;;28.13;50.48
60920;BME280;59039;52.108;19.942;2023-06-22T07:35:59;100894.15;;;28.24;49.00
60920;BME280;59039;52.108;19.942;2023-06-22T07:38:24;100892.37;;;28.35;47.33
60920;BME280;59039;52.108;19.942;2023-06-22T07:40:50;100892.30;;;28.44;47.94
60920;BME280;59039;52.108;19.942;2023-06-22T07:43:15;100893.86;;;28.50;47.38
60920;BME280;59039;52.108;19.942;2023-06-22T07:45:48;100892.64;;;28.58;45.14
60920;BME280;59039;52.108;19.942;2023-06-22T07:48:14;100887.44;;;28.67;46.35
60920;BME280;59039;52.108;19.942;2023-06-22T07:50:39;100892.13;;;28.78;45.83
60920;BME280;59039;52.108;19.942;2023-06-22T07:53:04;100890.05;;;28.84;44.29
60920;BME280;59039;52.108;19.942;2023-06-22T07:55:30;100888.88;;;28.89;45.00
60920;BME280;59039;52.108;19.942;2023-06-22T07:57:55;100888.73;;;28.98;45.25
60920;BME280;59039;52.108;19.942;2023-06-22T08:00:21;100886.52;;;29.03;43.97
60920;BME280;59039;52.108;19.942;2023-06-22T08:02:46;100887.71;;;29.09;43.44
60920;BME280;59039;52.108;19.942;2023-06-22T08:05:14;100888.33;;;29.13;42.52
60920;BME280;59039;52.108;19.942;2023-06-22T08:07:39;100887.75;;;29.16;43.54
60920;BME280;59039;52.108;19.942;2023-06-22T08:10:05;100887.62;;;29.23;42.96
60920;BME280;59039;52.108;19.942;2023-06-22T08:12:31;100891.69;;;29.28;42.18
60920;BME280;59039;52.108;19.942;2023-06-22T08:14:56;100887.99;;;29.34;42.77
60920;BME280;59039;52.108;19.942;2023-06-22T08:17:24;100886.36;;;29.41;43.35
60920;BME280;59039;52.108;19.942;2023-06-22T08:19:50;100897.33;;;29.47;42.36
60920;BME280;59039;52.108;19.942;2023-06-22T08:22:16;100899.80;;;29.50;43.16
60920;BME280;59039;52.108;19.942;2023-06-22T08:24:49;100905.30;;;29.52;43.46
60920;BME280;59039;52.108;19.942;2023-06-22T08:27:15;100904.30;;;29.52;43.35
60920;BME280;59039;52.108;19.942;2023-06-22T08:29:40;100909.63;;;29.46;41.58
60920;BME280;59039;52.108;19.942;2023-06-22T08:32:06;100911.63;;;29.36;41.87
60920;BME280;59039;52.108;19.942;2023-06-22T08:34:42;100903.96;;;29.24;42.50
60920;BME280;59039;52.108;19.942;2023-06-22T08:37:08;100899.08;;;29.10;41.76
60920;BME280;59039;52.108;19.942;2023-06-22T08:39:37;100898.86;;;28.97;42.85
60920;BME280;59039;52.108;19.942;2023-06-22T08:42:13;100897.00;;;28.86;43.40
60920;BME280;59039;52.108;19.942;2023-06-22T08:44:50;100897.79;;;28.73;43.56
60920;BME280;59039;52.108;19.942;2023-06-22T08:47:15;100903.81;;;28.62;44.28
60920;BME280;59039;52.108;19.942;2023-06-22T08:49:41;100903.34;;;28.50;43.06
60920;BME280;59039;52.108;19.942;2023-06-22T08:52:07;100895.04;;;28.40;44.68
60920;BME280;59039;52.108;19.942;2023-06-22T08:54:41;100898.50;;;28.28;44.44
60920;BME280;59039;52.108;19.942;2023-06-22T08:57:06;100892.04;;;28.17;44.58
60920;BME280;59039;52.108;19.942;2023-06-22T08:59:33;100897.54;;;28.05;45.04
60920;BME280;59039;52.108;19.942;2023-06-22T09:01:58;100892.88;;;27.96;45.52
60920;BME280;59039;52.108;19.942;2023-06-22T09:04:24;100901.62;;;27.88;45.56
60920;BME280;59039;52.108;19.942;2023-06-22T09:06:49;100907.18;;;27.81;45.54
60920;BME280;59039;52.108;19.942;2023-06-22T09:09:16;100906.73;;;27.73;45.26
60920;BME280;59039;52.108;19.942;2023-06-22T09:11:47;100908.16;;;27.64;45.67
60920;BME280;59039;52.108;19.942;2023-06-22T09:14:21;100909.05;;;27.56;45.72
60920;BME280;59039;52.108;19.942;2023-06-22T09:16:47;100915.41;;;27.48;45.52
60920;BME280;59039;52.108;19.942;2023-06-22T09:19:15;100913.82;;;27.39;45.35
60920;BME280;59039;52.108;19.942;2023-06-22T09:21:57;100918.05;;;27.32;46.25
60920;BME280;59039;52.108;19.942;2023-06-22T09:24:23;100916.62;;;27.26;45.81
60920;BME280;59039;52.108;19.942;2023-06-22T09:26:48;100913.38;;;27.22;47.00
60920;BME280;59039;52.108;19.942;2023-06-22T09:29:19;100917.39;;;27.18;46.77
60920;BME280;59039;52.108;19.942;2023-06-22T09:31:44;100912.58;;;27.13;46.57
60920;BME280;59039;52.108;19.942;2023-06-22T09:34:09;100910.02;;;27.07;46.03
60920;BME280;59039;52.108;19.942;2023-06-22T09:36:35;100907.38;;;27.03;46.33
60920;BME280;59039;52.108;19.942;2023-06-22T09:39:06;100907.60;;;26.97;45.73
60920;BME280;59039;52.108;19.942;2023-06-22T09:41:50;100903.83;;;26.91;45.77
60920;BME280;59039;52.108;19.942;2023-06-22T09:44:18;100901.74;;;26.87;46.75
60920;BME280;59039;52.108;19.942;2023-06-22T09:46:45;100893.91;;;26.83;46.95
60920;BME280;59039;52.108;19.942;2023-06-22T09:49:11;100886.11;;;26.80;47.57
60920;BME280;59039;52.108;19.942;2023-06-22T09:51:36;100888.86;;;26.78;47.69
60920;BME280;59039;52.108;19.942;2023-06-22T09:54:22;100881.05;;;26.77;47.83
60920;BME280;59039;52.108;19.942;2023-06-22T09:56:47;100875.73;;;26.76;47.93
60920;BME280;59039;52.108;19.942;2023-06-22T09:59:33;100874.96;;;26.74;47.46
60920;BME280;59039;52.108;19.942;2023-06-22T10:01:58;100877.70;;;26.72;47.24
60920;BME280;59039;52.108;19.942;2023-06-22T10:04:24;100878.74;;;26.70;47.16
60920;BME280;59039;52.108;19.942;2023-06-22T10:06:49;100876.94;;;26.70;47.29
60920;BME280;59039;52.108;19.942;2023-06-22T10:09:14;100871.98;;;26.67;45.76
60920;BME280;59039;52.108;19.942;2023-06-22T10:11:40;100874.33;;;26.66;47.10
60920;BME280;59039;52.108;19.942;2023-06-22T10:14:05;100871.55;;;26.64;46.87
60920;BME280;59039;52.108;19.942;2023-06-22T10:16:31;100868.23;;;26.62;48.10
60920;BME280;59039;52.108;19.942;2023-06-22T10:19:02;100861.48;;;26.61;47.59
60920;BME280;59039;52.108;19.942;2023-06-22T10:21:30;100866.70;;;26.60;47.75
60920;BME280;59039;52.108;19.942;2023-06-22T10:23:58;100865.52;;;26.61;47.68
60920;BME280;59039;52.108;19.942;2023-06-22T10:26:24;100869.04;;;26.61;47.93
60920;BME280;59039;52.108;19.942;2023-06-22T10:28:50;100872.73;;;26.61;47.85
60920;BME280;59039;52.108;19.942;2023-06-22T10:31:18;100868.63;;;26.60;46.79
60920;BME280;59039;52.108;19.942;2023-06-22T10:33:43;100874.63;;;26.59;46.96
60920;BME280;59039;52.108;19.942;2023-06-22T10:36:09;100874.85;;;26.58;47.74
60920;BME280;59039;52.108;19.942;2023-06-22T10:38:35;100871.48;;;26.57;47.12
60920;BME280;59039;52.108;19.942;2023-06-22T10:41:00;100872.60;;;26.57;48.00
60920;BME280;59039;52.108;19.942;2023-06-22T10:43:26;100871.98;;;26.58;48.25
60920;BME280;59039;52.108;19.942;2023-06-22T10:45:51;100869.21;;;26.59;48.95
60920;BME280;59039;52.108;19.942;2023-06-22T10:48:16;100867.07;;;26.59;48.76
60920;BME280;59039;52.108;19.942;2023-06-22T10:50:42;100865.86;;;26.60;48.73
60920;BME280;59039;52.108;19.942;2023-06-22T10:53:10;100863.61;;;26.60;48.91
60920;BME280;59039;52.108;19.942;2023-06-22T10:55:35;100869.81;;;26.60;48.83
60920;BME280;59039;52.108;19.942;2023-06-22T10:58:04;100864.36;;;26.61;48.73
60920;BME280;59039;52.108;19.942;2023-06-22T11:00:29;100866.05;;;26.62;48.85
60920;BME280;59039;52.108;19.942;2023-06-22T11:02:54;100863.91;;;26.64;49.21
60920;BME280;59039;52.108;19.942;2023-06-22T11:05:23;100864.55;;;26.65;49.08
60920;BME280;59039;52.108;19.942;2023-06-22T11:07:48;100867.41;;;26.66;48.76
60920;BME280;59039;52.108;19.942;2023-06-22T11:10:13;100865.76;;;26.67;48.81
60920;BME280;59039;52.108;19.942;2023-06-22T11:12:39;100860.08;;;26.68;48.49
60920;BME280;59039;52.108;19.942;2023-06-22T11:15:04;100865.23;;;26.70;48.31
60920;BME280;59039;52.108;19.942;2023-06-22T11:17:30;100864.85;;;26.71;48.29
60920;BME280;59039;52.108;19.942;2023-06-22T11:19:55;100865.10;;;26.71;47.65
60920;BME280;59039;52.108;19.942;2023-06-22T11:22:21;100860.55;;;26.72;46.91
60920;BME280;59039;52.108;19.942;2023-06-22T11:24:46;100856.52;;;26.73;47.52
60920;BME280;59039;52.108;19.942;2023-06-22T11:27:11;100856.34;;;26.74;47.29
60920;BME280;59039;52.108;19.942;2023-06-22T11:29:37;100851.21;;;26.75;46.98
60920;BME280;59039;52.108;19.942;2023-06-22T11:32:02;100849.66;;;26.75;46.87
60920;BME280;59039;52.108;19.942;2023-06-22T11:34:28;100844.33;;;26.75;46.97
60920;BME280;59039;52.108;19.942;2023-06-22T11:36:53;100843.39;;;26.77;46.80
60920;BME280;59039;52.108;19.942;2023-06-22T11:39:18;100838.49;;;26.77;46.65
60920;BME280;59039;52.108;19.942;2023-06-22T11:41:47;100835.80;;;26.77;45.10
60920;BME280;59039;52.108;19.942;2023-06-22T11:44:15;100836.30;;;26.77;45.85
60920;BME280;59039;52.108;19.942;2023-06-22T11:46:40;100827.28;;;26.77;46.36
60920;BME280;59039;52.108;19.942;2023-06-22T11:49:09;100824.71;;;26.76;45.73
60920;BME280;59039;52.108;19.942;2023-06-22T11:51:34;100824.70;;;26.76;46.17
60920;BME280;59039;52.108;19.942;2023-06-22T11:54:02;100830.34;;;26.77;46.12
60920;BME280;59039;52.108;19.942;2023-06-22T11:56:28;100832.23;;;26.76;45.79
60920;BME280;59039;52.108;19.942;2023-06-22T11:58:53;100833.85;;;26.76;45.65
60920;BME280;59039;52.108;19.942;2023-06-22T12:01:18;100833.29;;;26.76;45.76
60920;BME280;59039;52.108;19.942;2023-06-22T12:03:44;100835.25;;;26.77;45.55
60920;BME280;59039;52.108;19.942;2023-06-22T12:06:09;100834.80;;;26.77;46.03
60920;BME280;59039;52.108;19.942;2023-06-22T12:08:35;100834.37;;;26.77;45.75
60920;BME280;59039;52.108;19.942;2023-06-22T12:11:00;100836.17;;;26.78;45.47
60920;BME280;59039;52.108;19.942;2023-06-22T12:13:25;100837.79;;;26.78;45.30
60920;BME280;59039;52.108;19.942;2023-06-22T12:15:59;100835.73;;;26.78;44.44
60920;BME280;59039;52.108;19.942;2023-06-22T12:18:24;100836.05;;;26.78;42.33
60920;BME280;59039;52.108;19.942;2023-06-22T12:20:50;100836.73;;;26.78;43.05
60920;BME280;59039;52.108;19.942;2023-06-22T12:23:15;100839.29;;;26.78;42.73
60920;BME280;59039;52.108;19.942;2023-06-22T12:25:41;100840.91;;;26.78;43.09
60920;BME280;59039;52.108;19.942;2023-06-22T12:28:06;100838.73;;;26.78;42.78
60920;BME280;59039;52.108;19.942;2023-06-22T12:30:34;100837.73;;;26.78;42.79
60920;BME280;59039;52.108;19.942;2023-06-22T12:33:00;100838.13;;;26.78;42.94
60920;BME280;59039;52.108;19.942;2023-06-22T12:35:25;100842.37;;;26.78;43.01
60920;BME280;59039;52.108;19.942;2023-06-22T12:37:50;100841.58;;;26.78;41.71
60920;BME280;59039;52.108;19.942;2023-06-22T12:40:17;100842.41;;;26.78;41.49
60920;BME280;59039;52.108;19.942;2023-06-22T12:42:48;100841.74;;;26.78;41.89
60920;BME280;59039;52.108;19.942;2023-06-22T12:45:16;100843.52;;;26.78;43.11
60920;BME280;59039;52.108;19.942;2023-06-22T12:51:19;100834.20;;;26.81;40.96
60920;BME280;59039;52.108;19.942;2023-06-22T12:53:45;100827.17;;;26.77;41.34
60920;BME280;59039;52.108;19.942;2023-06-22T12:56:10;100818.62;;;26.76;41.79
60920;BME280;59039;52.108;19.942;2023-06-22T12:58:36;100816.38;;;26.75;41.44